createdAt,value
2016-09-09T00:01:36.943Z,0
2016-09-09T00:02:36.966Z,0
2016-09-09T00:04:37.011Z,0
2016-09-09T00:05:37.050Z,0
2016-09-09T00:07:06.906Z,0
2016-09-09T00:07:37.090Z,0
2016-09-09T00:08:37.128Z,0
2016-09-09T00:09:37.158Z,0
2016-09-09T00:10:37.160Z,0
2016-09-09T00:11:37.189Z,0
2016-09-09T00:13:37.245Z,0
2016-09-09T00:14:37.298Z,0
2016-09-09T00:15:52.213Z,0
2016-09-09T00:16:37.326Z,0
2016-09-09T00:17:52.278Z,0
2016-09-09T00:19:37.416Z,0
2016-09-09T00:20:37.443Z,0
2016-09-09T00:21:37.449Z,0
2016-09-09T00:22:52.430Z,0
2016-09-09T00:23:37.505Z,0
2016-09-09T00:24:37.528Z,0
2016-09-09T00:25:37.587Z,0
2016-09-09T00:26:37.595Z,0
2016-09-09T00:27:37.613Z,0
2016-09-09T00:28:37.706Z,0
2016-09-09T00:29:37.671Z,0
2016-09-09T00:31:37.728Z,0
2016-09-09T00:32:52.667Z,0
2016-09-09T00:33:37.806Z,0
2016-09-09T00:34:37.799Z,0
2016-09-09T00:36:07.664Z,0
2016-09-09T00:36:37.861Z,0
2016-09-09T00:37:52.806Z,0
2016-09-09T00:38:37.928Z,0
2016-09-09T00:39:37.920Z,0
2016-09-09T00:41:52.899Z,0
2016-09-09T00:42:37.994Z,0
2016-09-09T00:43:38.054Z,0
2016-09-09T00:44:38.048Z,0
2016-09-09T00:45:38.073Z,0
2016-09-09T00:46:53.027Z,0
2016-09-09T00:47:38.122Z,0
2016-09-09T00:48:38.167Z,0
2016-09-09T00:49:38.194Z,0
2016-09-09T00:50:38.270Z,0
2016-09-09T00:51:38.231Z,0
2016-09-09T00:52:53.184Z,0
2016-09-09T00:53:38.302Z,0
2016-09-09T00:54:53.237Z,0
2016-09-09T00:55:38.339Z,0
2016-09-09T00:56:38.382Z,0
2016-09-09T00:57:38.388Z,0
2016-09-09T00:58:38.459Z,0
2016-09-09T00:59:38.432Z,0
2016-09-09T01:00:38.480Z,0
2016-09-09T01:01:38.498Z,0
2016-09-09T01:02:38.521Z,0
2016-09-09T01:03:38.607Z,0
2016-09-09T01:04:38.587Z,0
2016-09-09T01:05:38.613Z,0
2016-09-09T01:06:38.616Z,0
2016-09-09T01:07:38.646Z,0
2016-09-09T01:08:38.675Z,0
2016-09-09T01:09:53.649Z,0
2016-09-09T01:11:38.759Z,0
2016-09-09T01:12:38.779Z,0
2016-09-09T01:13:38.800Z,0
2016-09-09T01:14:38.843Z,0
2016-09-09T01:15:38.847Z,0
2016-09-09T01:16:38.892Z,0
2016-09-09T01:17:53.842Z,0
2016-09-09T01:18:38.929Z,0
2016-09-09T01:19:38.981Z,0
2016-09-09T01:20:38.982Z,0
2016-09-09T01:21:39.029Z,0
2016-09-09T01:22:39.065Z,0
2016-09-09T01:23:39.062Z,0
2016-09-09T01:24:39.094Z,0
2016-09-09T01:25:54.036Z,0
2016-09-09T01:26:39.165Z,0
2016-09-09T01:27:39.169Z,0
2016-09-09T01:28:39.212Z,0
2016-09-09T01:29:39.213Z,0
2016-09-09T01:30:39.336Z,0
2016-09-09T01:31:39.270Z,0
2016-09-09T01:33:39.327Z,0
2016-09-09T01:34:39.344Z,0
2016-09-09T01:35:39.385Z,0
2016-09-09T01:36:39.405Z,0
2016-09-09T01:37:39.444Z,0
2016-09-09T01:38:54.377Z,0
2016-09-09T01:39:39.489Z,0
2016-09-09T01:40:39.528Z,0
2016-09-09T01:41:54.443Z,0
2016-09-09T01:42:39.562Z,0
2016-09-09T01:43:39.601Z,0
2016-09-09T01:44:39.621Z,0
2016-09-09T01:45:39.626Z,0
2016-09-09T01:46:39.948Z,0
2016-09-09T01:47:39.699Z,0
2016-09-09T01:48:39.701Z,0
2016-09-09T01:49:39.759Z,0
2016-09-09T01:50:54.675Z,0
2016-09-09T01:51:39.787Z,0
2016-09-09T01:52:54.741Z,0
2016-09-09T01:53:54.764Z,0
2016-09-09T01:54:39.881Z,0
2016-09-09T01:55:39.892Z,0
2016-09-09T01:56:39.901Z,0
2016-09-09T01:57:54.855Z,0
2016-09-09T02:00:40.008Z,0
2016-09-09T02:01:40.125Z,0
2016-09-09T02:02:40.059Z,0
2016-09-09T02:03:40.095Z,0
2016-09-09T02:04:40.111Z,0
2016-09-09T02:05:40.151Z,0
2016-09-09T02:07:40.234Z,0
2016-09-09T02:08:55.156Z,0
2016-09-09T02:09:40.266Z,0
2016-09-09T02:10:40.295Z,0
2016-09-09T02:11:40.308Z,0
2016-09-09T02:13:40.344Z,0
2016-09-09T02:14:40.382Z,0
2016-09-09T02:15:40.427Z,0
2016-09-09T02:16:40.419Z,0
2016-09-09T02:17:55.379Z,0
2016-09-09T02:18:40.477Z,0
2016-09-09T02:19:55.444Z,0
2016-09-09T02:21:55.495Z,0
2016-09-09T02:22:55.505Z,0
2016-09-09T02:23:40.639Z,0
2016-09-09T02:24:40.633Z,0
2016-09-09T02:25:40.689Z,0
2016-09-09T02:27:40.717Z,0
2016-09-09T02:28:55.674Z,0
2016-09-09T02:30:10.601Z,0
2016-09-09T02:30:40.802Z,0
2016-09-09T02:31:55.760Z,0
2016-09-09T02:32:40.832Z,0
2016-09-09T02:33:40.865Z,0
2016-09-09T02:34:56.192Z,0
2016-09-09T02:35:40.921Z,0
2016-09-09T02:36:55.888Z,0
2016-09-09T02:37:40.953Z,0
2016-09-09T02:38:40.998Z,0
2016-09-09T02:39:41.009Z,0
2016-09-09T02:40:41.095Z,0
2016-09-09T02:42:41.101Z,0
2016-09-09T02:43:41.133Z,0
2016-09-09T02:44:56.062Z,0
2016-09-09T02:45:41.157Z,0
2016-09-09T02:46:41.190Z,0
2016-09-09T02:47:41.226Z,0
2016-09-09T02:49:41.256Z,0
2016-09-09T02:50:41.325Z,0
2016-09-09T02:51:41.307Z,0
2016-09-09T02:52:41.370Z,0
2016-09-09T02:53:41.373Z,0
2016-09-09T02:54:41.396Z,0
2016-09-09T02:55:41.421Z,0
2016-09-09T02:56:41.449Z,0
2016-09-09T02:57:41.493Z,0
2016-09-09T02:58:41.500Z,0
2016-09-09T03:00:56.469Z,0
2016-09-09T03:01:41.614Z,0
2016-09-09T03:02:56.516Z,0
2016-09-09T03:03:56.551Z,0
2016-09-09T03:04:41.637Z,0
2016-09-09T03:05:41.688Z,0
2016-09-09T03:06:41.694Z,0
2016-09-09T03:07:41.749Z,0
2016-09-09T03:08:41.819Z,0
2016-09-09T03:09:41.793Z,0
2016-09-09T03:10:41.797Z,0
2016-09-09T03:12:41.880Z,0
2016-09-09T03:13:41.868Z,0
2016-09-09T03:14:41.928Z,0
2016-09-09T03:15:56.894Z,0
2016-09-09T03:16:56.885Z,0
2016-09-09T03:17:41.995Z,0
2016-09-09T03:18:41.999Z,0
2016-09-09T03:19:42.043Z,0
2016-09-09T03:20:42.054Z,0
2016-09-09T03:21:57.022Z,0
2016-09-09T03:23:42.148Z,0
2016-09-09T03:24:42.177Z,0
2016-09-09T03:25:42.170Z,0
2016-09-09T03:26:42.216Z,0
2016-09-09T03:27:42.244Z,0
2016-09-09T03:28:42.251Z,0
2016-09-09T03:29:42.314Z,0
2016-09-09T03:30:42.307Z,0
2016-09-09T03:31:42.349Z,0
2016-09-09T03:32:57.278Z,0
2016-09-09T03:33:42.408Z,0
2016-09-09T03:34:42.420Z,0
2016-09-09T03:35:42.453Z,0
2016-09-09T03:36:42.464Z,0
2016-09-09T03:37:57.438Z,0
2016-09-09T03:38:57.472Z,0
2016-09-09T03:39:42.526Z,0
2016-09-09T03:40:42.584Z,0
2016-09-09T03:41:57.522Z,0
2016-09-09T03:43:42.632Z,0
2016-09-09T03:44:57.603Z,0
2016-09-09T03:45:42.736Z,0
2016-09-09T03:46:42.725Z,0
2016-09-09T03:47:57.677Z,0
2016-09-09T03:48:42.784Z,0
2016-09-09T03:49:42.794Z,0
2016-09-09T03:50:42.820Z,0
2016-09-09T03:51:42.849Z,0
2016-09-09T03:52:57.822Z,0
2016-09-09T03:53:42.892Z,0
2016-09-09T03:55:42.929Z,0
2016-09-09T03:56:42.956Z,0
2016-09-09T03:58:57.948Z,0
2016-09-09T03:59:43.033Z,0
2016-09-09T04:00:58.002Z,0
2016-09-09T04:01:43.105Z,0
2016-09-09T04:02:43.124Z,0
2016-09-09T04:03:58.073Z,0
2016-09-09T04:04:58.093Z,0
2016-09-09T04:05:43.254Z,0
2016-09-09T04:06:43.208Z,0
2016-09-09T04:07:43.256Z,0
2016-09-09T04:08:58.204Z,0
2016-09-09T04:09:58.219Z,0
2016-09-09T04:10:43.328Z,0
2016-09-09T04:11:43.367Z,0
2016-09-09T04:12:43.371Z,0
2016-09-09T04:13:43.388Z,0
2016-09-09T04:14:43.425Z,0
2016-09-09T04:15:43.499Z,0
2016-09-09T04:16:43.519Z,0
2016-09-09T04:17:58.413Z,0
2016-09-09T04:18:43.548Z,0
2016-09-09T04:19:58.469Z,0
2016-09-09T04:21:43.613Z,0
2016-09-09T04:22:58.553Z,0
2016-09-09T04:23:43.656Z,0
2016-09-09T04:24:58.596Z,0
2016-09-09T04:25:58.683Z,0
2016-09-09T04:26:43.726Z,5
2016-09-09T04:27:44.078Z,5
2016-09-09T04:28:43.789Z,5
2016-09-09T04:29:43.809Z,5
2016-09-09T04:30:43.829Z,5
2016-09-09T04:31:43.872Z,5
2016-09-09T04:32:44.178Z,5
2016-09-09T04:33:43.917Z,5
2016-09-09T04:34:43.917Z,5
2016-09-09T04:35:58.880Z,10
2016-09-09T04:36:58.896Z,10
2016-09-09T04:37:58.924Z,10
2016-09-09T04:38:44.020Z,10
2016-09-09T04:39:44.049Z,10
2016-09-09T04:40:59.019Z,15
2016-09-09T04:41:44.116Z,15
2016-09-09T04:42:44.112Z,15
2016-09-09T04:43:44.143Z,15
2016-09-09T04:44:44.178Z,15
2016-09-09T04:45:44.206Z,20
2016-09-09T04:47:14.081Z,20
2016-09-09T04:47:44.280Z,20
2016-09-09T04:48:44.281Z,25
2016-09-09T04:49:44.326Z,25
2016-09-09T04:50:44.319Z,25
2016-09-09T04:51:59.276Z,30
2016-09-09T04:52:44.388Z,30
2016-09-09T04:53:59.328Z,30
2016-09-09T04:55:44.470Z,35
2016-09-09T04:56:59.401Z,35
2016-09-09T04:57:44.517Z,40
2016-09-09T04:59:44.546Z,40
2016-09-09T05:00:59.516Z,45
2016-09-09T05:01:44.591Z,45
2016-09-09T05:02:44.630Z,45
2016-09-09T05:03:44.651Z,50
2016-09-09T05:04:44.699Z,50
2016-09-09T05:05:44.707Z,55
2016-09-09T05:06:59.734Z,55
2016-09-09T05:07:59.692Z,60
2016-09-09T05:08:44.772Z,60
2016-09-09T05:09:44.832Z,60
2016-09-09T05:10:44.838Z,65
2016-09-09T05:11:44.882Z,65
2016-09-09T05:13:44.930Z,70
2016-09-09T05:14:44.929Z,70
2016-09-09T05:15:44.997Z,75
2016-09-09T05:16:44.987Z,70
2016-09-09T05:17:45.000Z,75
2016-09-09T05:19:45.083Z,65
2016-09-09T05:20:45.095Z,70
2016-09-09T05:21:45.139Z,75
2016-09-09T05:23:00.052Z,85
2016-09-09T05:23:45.179Z,95
2016-09-09T05:24:45.187Z,105
2016-09-09T05:25:45.226Z,120
2016-09-09T05:27:00.166Z,125
2016-09-09T05:27:45.274Z,115
2016-09-09T05:28:45.302Z,105
2016-09-09T05:29:45.365Z,115
2016-09-09T05:31:45.362Z,115
2016-09-09T05:32:45.392Z,115
2016-09-09T05:33:45.409Z,120
2016-09-09T05:34:45.468Z,125
2016-09-09T05:35:45.477Z,125
2016-09-09T05:37:00.436Z,125
2016-09-09T05:37:45.547Z,120
2016-09-09T05:38:45.545Z,125
2016-09-09T05:39:45.590Z,140
2016-09-09T05:40:45.597Z,140
2016-09-09T05:42:00.570Z,145
2016-09-09T05:42:45.648Z,145
2016-09-09T05:43:45.683Z,145
2016-09-09T05:44:45.708Z,155
2016-09-09T05:46:45.761Z,155
2016-09-09T05:47:45.790Z,160
2016-09-09T05:49:01.233Z,195
2016-09-09T05:49:45.835Z,285
2016-09-09T05:50:45.860Z,415
2016-09-09T05:51:45.911Z,445
2016-09-09T05:52:46.241Z,440
2016-09-09T05:53:45.949Z,480
2016-09-09T05:55:00.889Z,515
2016-09-09T05:56:00.909Z,515
2016-09-09T05:56:46.034Z,515
2016-09-09T05:57:46.049Z,510
2016-09-09T05:58:46.110Z,510
2016-09-09T06:00:46.151Z,505
2016-09-09T06:01:46.146Z,505
2016-09-09T06:02:46.172Z,515
2016-09-09T06:04:01.149Z,485
2016-09-09T06:05:01.178Z,480
2016-09-09T06:05:46.301Z,470
2016-09-09T06:06:46.292Z,465
2016-09-09T06:07:46.418Z,455
2016-09-09T06:09:01.292Z,440
2016-09-09T06:09:46.392Z,425
2016-09-09T06:11:01.342Z,415
2016-09-09T06:11:46.445Z,415
2016-09-09T06:12:46.494Z,405
2016-09-09T06:14:01.444Z,390
2016-09-09T06:14:46.554Z,385
2016-09-09T06:16:01.531Z,390
2016-09-09T06:16:46.616Z,390
2016-09-09T06:18:01.565Z,395
2016-09-09T06:18:46.734Z,400
2016-09-09T06:19:46.703Z,410
2016-09-09T06:20:46.722Z,410
2016-09-09T06:22:01.692Z,400
2016-09-09T06:22:46.839Z,400
2016-09-09T06:23:46.837Z,410
2016-09-09T06:25:01.784Z,440
2016-09-09T06:25:46.944Z,465
2016-09-09T06:27:01.871Z,580
2016-09-09T06:28:01.888Z,1095
2016-09-09T06:28:47.011Z,1280
2016-09-09T06:29:47.034Z,1070
2016-09-09T06:30:47.061Z,875
2016-09-09T06:31:47.143Z,870
2016-09-09T06:32:47.455Z,990
2016-09-09T06:33:47.143Z,980
2016-09-09T06:35:02.136Z,930
2016-09-09T06:35:47.233Z,925
2016-09-09T06:36:47.264Z,945
2016-09-09T06:37:47.311Z,990
2016-09-09T06:38:47.332Z,985
2016-09-09T06:39:47.370Z,965
2016-09-09T06:40:47.723Z,990
2016-09-09T06:41:47.424Z,980
2016-09-09T06:43:02.398Z,960
2016-09-09T06:43:47.501Z,945
2016-09-09T06:44:47.553Z,930
2016-09-09T06:46:02.791Z,925
2016-09-09T06:46:47.597Z,975
2016-09-09T06:48:02.581Z,930
2016-09-09T06:48:47.661Z,945
2016-09-09T06:49:47.726Z,1000
2016-09-09T06:51:47.765Z,985
2016-09-09T06:52:47.798Z,950
2016-09-09T06:53:47.835Z,930
2016-09-09T06:54:47.891Z,950
2016-09-09T06:55:47.919Z,975
2016-09-09T06:56:47.974Z,990
2016-09-09T06:58:17.831Z,975
2016-09-09T06:59:48.067Z,955
2016-09-09T07:00:48.082Z,970
2016-09-09T07:02:03.087Z,995
2016-09-09T07:03:48.205Z,970
2016-09-09T07:05:03.183Z,945
2016-09-09T07:06:03.189Z,915
2016-09-09T07:06:48.308Z,930
2016-09-09T07:08:48.371Z,965
2016-09-09T07:09:48.405Z,970
2016-09-09T07:10:48.440Z,925
2016-09-09T07:11:48.479Z,910
2016-09-09T07:12:48.507Z,915
2016-09-09T07:15:03.496Z,910
2016-09-09T07:16:03.535Z,915
2016-09-09T07:16:48.667Z,910
2016-09-09T07:17:48.682Z,905
2016-09-09T07:18:48.711Z,915
2016-09-09T07:19:48.774Z,950
2016-09-09T07:20:48.801Z,945
2016-09-09T07:21:48.851Z,935
2016-09-09T07:23:03.788Z,940
2016-09-09T07:23:48.896Z,930
2016-09-09T07:24:48.929Z,930
2016-09-09T07:26:03.940Z,925
2016-09-09T07:27:03.925Z,950
2016-09-09T07:28:03.965Z,935
2016-09-09T07:28:49.105Z,950
2016-09-09T07:30:04.026Z,970
2016-09-09T07:30:49.471Z,935
2016-09-09T07:31:49.173Z,925
2016-09-09T07:33:49.297Z,895
2016-09-09T07:34:49.351Z,865
2016-09-09T07:35:49.336Z,865
2016-09-09T07:36:49.666Z,855
2016-09-09T07:38:19.256Z,860
2016-09-09T07:38:49.460Z,855
2016-09-09T07:39:49.473Z,860
2016-09-09T07:40:49.501Z,850
2016-09-09T07:41:49.526Z,845
2016-09-09T07:43:19.421Z,825
2016-09-09T07:43:49.631Z,835
2016-09-09T07:44:49.653Z,825
2016-09-09T07:47:04.640Z,840
2016-09-09T07:48:49.780Z,825
2016-09-09T07:49:49.812Z,830
2016-09-09T07:50:49.867Z,810
2016-09-09T07:51:49.893Z,820
2016-09-09T07:52:49.951Z,815
2016-09-09T07:53:49.972Z,805
2016-09-09T07:54:50.020Z,805
2016-09-09T07:56:50.065Z,795
2016-09-09T07:59:19.990Z,795
2016-09-09T08:00:50.552Z,785
2016-09-09T08:02:05.161Z,730
2016-09-09T08:02:50.310Z,735
2016-09-09T08:04:05.264Z,760
2016-09-09T08:04:50.354Z,780
2016-09-09T08:05:50.704Z,775
2016-09-09T08:06:50.478Z,770
2016-09-09T08:07:50.464Z,735
2016-09-09T08:08:50.505Z,730
2016-09-09T08:09:50.537Z,720
2016-09-09T08:10:50.561Z,705
2016-09-09T08:11:50.595Z,755
2016-09-09T08:12:50.651Z,750
2016-09-09T08:13:50.665Z,735
2016-09-09T08:14:50.725Z,750
2016-09-09T08:16:50.799Z,740
2016-09-09T08:18:05.730Z,720
2016-09-09T08:19:05.768Z,720
2016-09-09T08:19:50.878Z,705
2016-09-09T08:21:05.853Z,685
2016-09-09T08:22:51.005Z,685
2016-09-09T08:23:51.012Z,665
2016-09-09T08:24:51.064Z,670
2016-09-09T08:25:51.106Z,655
2016-09-09T08:26:51.189Z,650
2016-09-09T08:27:51.198Z,645
2016-09-09T08:28:51.181Z,650
2016-09-09T08:29:51.244Z,640
2016-09-09T08:31:06.203Z,625
2016-09-09T08:31:51.303Z,630
2016-09-09T08:33:51.363Z,620
2016-09-09T08:34:51.403Z,610
2016-09-09T08:35:51.439Z,610
2016-09-09T08:36:51.477Z,605
2016-09-09T08:37:51.536Z,595
2016-09-09T08:38:51.583Z,590
2016-09-09T08:39:51.592Z,585
2016-09-09T08:40:51.654Z,565
2016-09-09T08:41:51.653Z,570
2016-09-09T08:43:51.731Z,550
2016-09-09T08:45:51.791Z,535
2016-09-09T08:46:51.840Z,530
2016-09-09T08:47:51.852Z,525
2016-09-09T08:48:51.902Z,515
2016-09-09T08:49:51.927Z,500
2016-09-09T08:51:06.901Z,490
2016-09-09T08:51:52.012Z,490
2016-09-09T08:52:52.022Z,490
2016-09-09T08:54:07.013Z,480
2016-09-09T08:54:52.090Z,475
2016-09-09T08:55:52.438Z,470
2016-09-09T08:56:52.163Z,470
2016-09-09T08:57:52.211Z,465
2016-09-09T08:58:52.274Z,460
2016-09-09T09:00:52.312Z,455
2016-09-09T09:01:52.346Z,455
2016-09-09T09:03:07.308Z,445
2016-09-09T09:03:52.404Z,435
2016-09-09T09:05:07.366Z,445
2016-09-09T09:05:52.510Z,440
2016-09-09T09:06:52.526Z,420
2016-09-09T09:08:07.504Z,425
2016-09-09T09:08:52.572Z,435
2016-09-09T09:09:52.636Z,425
2016-09-09T09:10:52.655Z,440
2016-09-09T09:12:07.608Z,440
2016-09-09T09:12:52.719Z,460
2016-09-09T09:14:07.681Z,290
2016-09-09T09:14:52.796Z,430
2016-09-09T09:15:52.847Z,405
2016-09-09T09:16:52.898Z,400
2016-09-09T09:17:52.889Z,445
2016-09-09T09:18:52.939Z,440
2016-09-09T09:19:52.983Z,455
2016-09-09T09:21:07.935Z,455
2016-09-09T09:21:53.059Z,435
2016-09-09T09:23:07.986Z,440
2016-09-09T09:23:53.117Z,430
2016-09-09T09:24:53.137Z,435
2016-09-09T09:25:53.179Z,420
2016-09-09T09:26:53.209Z,410
2016-09-09T09:27:53.285Z,390
2016-09-09T09:28:53.274Z,375
2016-09-09T09:29:53.327Z,360
2016-09-09T09:30:53.345Z,345
2016-09-09T09:31:53.415Z,340
2016-09-09T09:33:23.267Z,335
2016-09-09T09:33:53.450Z,335
2016-09-09T09:35:08.403Z,330
2016-09-09T09:35:53.532Z,335
2016-09-09T09:37:08.475Z,330
2016-09-09T09:37:53.582Z,325
2016-09-09T09:39:08.534Z,325
2016-09-09T09:40:08.579Z,315
2016-09-09T09:40:53.734Z,315
2016-09-09T09:41:53.768Z,315
2016-09-09T09:42:53.761Z,315
2016-09-09T09:43:53.788Z,320
2016-09-09T09:44:53.824Z,315
2016-09-09T09:45:53.865Z,315
2016-09-09T09:46:53.897Z,310
2016-09-09T09:47:53.922Z,310
2016-09-09T09:48:53.957Z,305
2016-09-09T09:49:53.995Z,305
2016-09-09T09:50:54.030Z,305
2016-09-09T09:51:54.066Z,305
2016-09-09T09:53:09.038Z,305
2016-09-09T09:53:54.133Z,300
2016-09-09T09:54:54.170Z,300
2016-09-09T09:55:54.200Z,295
2016-09-09T09:56:54.238Z,295
2016-09-09T09:58:09.212Z,295
2016-09-09T09:58:54.313Z,295
2016-09-09T09:59:54.339Z,290
2016-09-09T10:00:54.373Z,290
2016-09-09T10:01:54.409Z,290
2016-09-09T10:03:09.371Z,295
2016-09-09T10:03:54.484Z,290
2016-09-09T10:04:54.512Z,290
2016-09-09T10:05:54.547Z,290
2016-09-09T10:06:54.575Z,285
2016-09-09T10:08:09.543Z,290
2016-09-09T10:08:54.645Z,290
2016-09-09T10:09:54.684Z,290
2016-09-09T10:10:54.718Z,285
2016-09-09T10:11:54.745Z,285
2016-09-09T10:13:54.824Z,285
2016-09-09T10:14:54.862Z,285
2016-09-09T10:16:54.915Z,290
2016-09-09T10:17:54.951Z,285
2016-09-09T10:18:54.981Z,285
2016-09-09T10:19:55.020Z,285
2016-09-09T10:20:55.051Z,280
2016-09-09T10:22:10.019Z,285
2016-09-09T10:22:55.117Z,285
2016-09-09T10:24:10.084Z,280
2016-09-09T10:24:55.193Z,270
2016-09-09T10:25:55.230Z,265
2016-09-09T10:26:55.255Z,260
2016-09-09T10:27:55.299Z,265
2016-09-09T10:28:55.322Z,260
2016-09-09T10:29:55.366Z,255
2016-09-09T10:30:55.398Z,250
2016-09-09T10:31:55.436Z,245
2016-09-09T10:32:55.457Z,245
2016-09-09T10:33:55.493Z,245
2016-09-09T10:35:10.509Z,240
2016-09-09T10:35:55.565Z,240
2016-09-09T10:36:55.603Z,240
2016-09-09T10:38:55.971Z,235
2016-09-09T10:40:55.732Z,235
2016-09-09T10:41:55.778Z,235
2016-09-09T10:43:10.727Z,230
2016-09-09T10:43:55.830Z,225
2016-09-09T10:44:55.861Z,230
2016-09-09T10:46:10.917Z,225
2016-09-09T10:46:55.933Z,220
2016-09-09T10:48:10.899Z,215
2016-09-09T10:48:55.992Z,215
2016-09-09T10:50:10.951Z,215
2016-09-09T10:50:56.067Z,210
2016-09-09T10:51:56.089Z,205
2016-09-09T10:52:56.129Z,205
2016-09-09T10:53:56.158Z,205
2016-09-09T10:55:11.116Z,205
2016-09-09T10:56:11.142Z,205
2016-09-09T10:56:56.255Z,205
2016-09-09T10:58:11.209Z,205
2016-09-09T10:58:56.327Z,205
2016-09-09T10:59:56.353Z,205
2016-09-09T11:00:56.381Z,205
2016-09-09T11:01:56.416Z,210
2016-09-09T11:02:56.450Z,210
2016-09-09T11:04:11.405Z,210
2016-09-09T11:05:11.436Z,210
2016-09-09T11:05:56.548Z,205
2016-09-09T11:06:56.578Z,205
2016-09-09T11:07:56.616Z,210
2016-09-09T11:08:56.654Z,205
2016-09-09T11:09:56.684Z,205
2016-09-09T11:10:56.715Z,205
2016-09-09T11:12:11.668Z,205
2016-09-09T11:12:56.773Z,205
2016-09-09T11:13:56.812Z,210
2016-09-09T11:15:56.865Z,200
2016-09-09T11:16:56.904Z,195
2016-09-09T11:17:56.935Z,195
2016-09-09T11:19:11.891Z,190
2016-09-09T11:20:11.987Z,160
2016-09-09T11:20:57.037Z,185
2016-09-09T11:21:57.053Z,190
2016-09-09T11:22:57.093Z,165
2016-09-09T11:23:57.122Z,150
2016-09-09T11:25:12.076Z,150
2016-09-09T11:25:57.189Z,150
2016-09-09T11:28:27.106Z,170
2016-09-09T11:28:57.285Z,170
2016-09-09T11:29:57.307Z,155
2016-09-09T11:30:57.349Z,155
2016-09-09T11:31:57.380Z,150
2016-09-09T11:32:57.421Z,155
2016-09-09T11:33:57.444Z,155
2016-09-09T11:34:57.481Z,155
2016-09-09T11:36:12.452Z,155
2016-09-09T11:36:57.547Z,155
2016-09-09T11:37:57.568Z,160
2016-09-09T11:39:12.529Z,160
2016-09-09T11:39:57.652Z,165
2016-09-09T11:40:57.668Z,190
2016-09-09T11:42:27.554Z,190
2016-09-09T11:43:12.663Z,180
2016-09-09T11:43:57.765Z,175
2016-09-09T11:44:57.796Z,170
2016-09-09T11:45:58.419Z,165
2016-09-09T11:46:57.861Z,160
2016-09-09T11:48:12.818Z,155
2016-09-09T11:48:57.922Z,185
2016-09-09T11:49:57.977Z,155
2016-09-09T11:50:57.994Z,155
2016-09-09T11:51:58.017Z,160
2016-09-09T11:52:58.055Z,185
2016-09-09T11:53:58.084Z,190
2016-09-09T11:55:58.147Z,155
2016-09-09T11:56:58.174Z,175
2016-09-09T11:57:58.210Z,160
2016-09-09T11:58:58.257Z,155
2016-09-09T11:59:58.282Z,150
2016-09-09T12:00:58.309Z,150
2016-09-09T12:01:58.345Z,145
2016-09-09T12:02:58.381Z,170
2016-09-09T12:03:58.396Z,145
2016-09-09T12:04:58.422Z,145
2016-09-09T12:05:58.466Z,155
2016-09-09T12:06:58.489Z,150
2016-09-09T12:09:13.478Z,150
2016-09-09T12:09:58.586Z,150
2016-09-09T12:10:58.619Z,155
2016-09-09T12:11:58.643Z,160
2016-09-09T12:12:58.685Z,205
2016-09-09T12:13:58.719Z,205
2016-09-09T12:15:13.677Z,205
2016-09-09T12:15:58.785Z,200
2016-09-09T12:16:58.807Z,195
2016-09-09T12:17:58.849Z,145
2016-09-09T12:18:58.862Z,140
2016-09-09T12:19:58.898Z,140
2016-09-09T12:20:58.936Z,145
2016-09-09T12:21:58.968Z,185
2016-09-09T12:22:58.997Z,195
2016-09-09T12:23:59.029Z,190
2016-09-09T12:24:59.074Z,190
2016-09-09T12:25:59.147Z,190
2016-09-09T12:26:59.123Z,195
2016-09-09T12:27:59.165Z,195
2016-09-09T12:28:59.191Z,195
2016-09-09T12:29:59.213Z,195
2016-09-09T12:31:14.188Z,195
2016-09-09T12:31:59.292Z,195
2016-09-09T12:33:14.235Z,195
2016-09-09T12:33:59.334Z,195
2016-09-09T12:34:59.379Z,205
2016-09-09T12:36:14.332Z,210
2016-09-09T12:37:14.364Z,210
2016-09-09T12:38:14.393Z,210
2016-09-09T12:38:59.508Z,210
2016-09-09T12:40:59.575Z,205
2016-09-09T12:41:59.595Z,200
2016-09-09T12:42:59.626Z,200
2016-09-09T12:43:59.654Z,200
2016-09-09T12:44:59.695Z,175
2016-09-09T12:47:15.773Z,180
2016-09-09T12:47:59.778Z,180
2016-09-09T12:48:59.818Z,190
2016-09-09T12:50:00.151Z,200
2016-09-09T12:50:59.871Z,195
2016-09-09T12:51:59.910Z,195
2016-09-09T12:52:59.945Z,195
2016-09-09T12:53:59.996Z,195
2016-09-09T12:55:00.005Z,190
2016-09-09T12:57:00.076Z,190
2016-09-09T12:58:00.106Z,190
2016-09-09T12:59:00.435Z,185
2016-09-09T13:00:15.090Z,185
2016-09-09T13:01:00.203Z,190
2016-09-09T13:03:15.236Z,190
2016-09-09T13:04:15.217Z,190
2016-09-09T13:05:00.320Z,185
2016-09-09T13:06:15.289Z,185
2016-09-09T13:07:00.387Z,185
2016-09-09T13:08:00.418Z,185
2016-09-09T13:09:00.444Z,185
2016-09-09T13:10:15.403Z,185
2016-09-09T13:12:00.542Z,190
2016-09-09T13:13:00.579Z,190
2016-09-09T13:14:00.605Z,155
2016-09-09T13:15:00.638Z,190
2016-09-09T13:16:15.594Z,195
2016-09-09T13:17:00.716Z,185
2016-09-09T13:18:15.654Z,185
2016-09-09T13:19:15.787Z,185
2016-09-09T13:20:00.790Z,190
2016-09-09T13:21:00.832Z,190
2016-09-09T13:22:00.855Z,190
2016-09-09T13:23:00.897Z,185
2016-09-09T13:24:00.922Z,190
2016-09-09T13:25:00.958Z,190
2016-09-09T13:26:15.909Z,190
2016-09-09T13:27:15.943Z,190
2016-09-09T13:28:01.046Z,190
2016-09-09T13:29:01.091Z,185
2016-09-09T13:30:01.110Z,190
2016-09-09T13:31:16.640Z,190
2016-09-09T13:33:01.497Z,200
2016-09-09T13:34:01.247Z,190
2016-09-09T13:35:01.263Z,190
2016-09-09T13:36:01.304Z,185
2016-09-09T13:37:01.340Z,185
2016-09-09T13:38:16.294Z,185
2016-09-09T13:39:01.397Z,180
2016-09-09T13:40:01.434Z,180
2016-09-09T13:41:01.454Z,180
2016-09-09T13:42:01.491Z,180
2016-09-09T13:43:16.455Z,175
2016-09-09T13:44:16.486Z,170
2016-09-09T13:45:01.586Z,170
2016-09-09T13:46:01.630Z,170
2016-09-09T13:47:16.979Z,170
2016-09-09T13:48:01.692Z,170
2016-09-09T13:49:16.635Z,170
2016-09-09T13:50:31.599Z,165
2016-09-09T13:51:16.701Z,165
2016-09-09T13:52:01.823Z,165
2016-09-09T13:54:01.877Z,160
2016-09-09T13:55:01.901Z,155
2016-09-09T13:56:16.862Z,160
2016-09-09T13:57:01.969Z,165
2016-09-09T13:58:02.007Z,165
2016-09-09T13:59:16.964Z,165
2016-09-09T14:00:16.982Z,165
2016-09-09T14:01:02.107Z,165
2016-09-09T14:02:02.140Z,165
2016-09-09T14:03:17.081Z,165
2016-09-09T14:04:17.110Z,165
2016-09-09T14:05:02.213Z,165
2016-09-09T14:06:17.178Z,170
2016-09-09T14:07:17.206Z,170
2016-09-09T14:08:02.325Z,170
2016-09-09T14:09:17.273Z,165
2016-09-09T14:10:02.378Z,165
2016-09-09T14:11:02.418Z,165
2016-09-09T14:12:02.440Z,160
2016-09-09T14:13:02.474Z,160
2016-09-09T14:14:02.496Z,165
2016-09-09T14:15:02.530Z,160
2016-09-09T14:16:02.564Z,155
2016-09-09T14:17:02.605Z,150
2016-09-09T14:18:17.562Z,115
2016-09-09T14:19:32.513Z,145
2016-09-09T14:20:02.682Z,155
2016-09-09T14:21:02.733Z,150
2016-09-09T14:22:32.606Z,145
2016-09-09T14:23:02.788Z,150
2016-09-09T14:24:02.817Z,150
2016-09-09T14:25:02.842Z,150
2016-09-09T14:26:03.191Z,145
2016-09-09T14:27:02.908Z,110
2016-09-09T14:28:02.951Z,130
2016-09-09T14:29:02.987Z,155
2016-09-09T14:30:03.009Z,155
2016-09-09T14:31:03.036Z,155
2016-09-09T14:32:03.071Z,160
2016-09-09T14:33:03.110Z,160
2016-09-09T14:34:18.054Z,155
2016-09-09T14:35:18.104Z,155
2016-09-09T14:36:03.186Z,155
2016-09-09T14:37:03.228Z,155
2016-09-09T14:38:18.178Z,155
2016-09-09T14:39:03.600Z,150
2016-09-09T14:41:03.431Z,150
2016-09-09T14:42:03.384Z,145
2016-09-09T14:43:03.419Z,145
2016-09-09T14:44:03.441Z,140
2016-09-09T14:45:03.466Z,135
2016-09-09T14:46:03.502Z,135
2016-09-09T14:47:18.472Z,140
2016-09-09T14:48:03.612Z,140
2016-09-09T14:49:03.900Z,140
2016-09-09T14:50:03.674Z,135
2016-09-09T14:51:03.666Z,135
2016-09-09T14:52:03.692Z,135
2016-09-09T14:53:18.653Z,135
2016-09-09T14:54:03.757Z,135
2016-09-09T14:55:18.706Z,140
2016-09-09T14:56:03.820Z,140
2016-09-09T14:57:03.844Z,140
2016-09-09T14:58:03.876Z,140
2016-09-09T14:59:03.907Z,140
2016-09-09T15:00:18.863Z,135
2016-09-09T15:01:03.976Z,130
2016-09-09T15:02:04.144Z,130
2016-09-09T15:03:04.033Z,130
2016-09-09T15:04:04.062Z,130
2016-09-09T15:05:19.025Z,130
2016-09-09T15:06:04.122Z,130
2016-09-09T15:07:04.157Z,130
2016-09-09T15:08:04.523Z,125